Боухантеры.ру

Информация о пользователе

Привет, Гость! Войдите или зарегистрируйтесь.


Вы здесь » Боухантеры.ру » Снаряжение боухантера


Снаряжение боухантера

Тем 121 страница 150 из 154

Тема Ответов Просмотров Последнее сообщение
121 Как собрать охотничью стрелу  Александр Курашёв
16 227 2020-01-22 19:27:31  Bowhunterinfo
5 79 2020-01-20 13:10:26  Bows
123 Как не мерзнуть на дереве???  Тот Самый Олег  [ 1 2 ]
49 294 2020-01-20 11:58:32  Юджин
124 Наконечник Бишоп  Тот Самый Олег
2 51 2020-01-20 03:22:57  Тот Самый Олег
1 32 2020-01-20 02:28:48  Sanarcher
41 405 2020-01-17 23:42:20  РобинГад
9 109 2020-01-16 22:54:36  Юджин
128 Дальномер  Владимир
17 183 2020-01-14 22:43:47  Bows
129 Сброс  exc3lent
18 150 2020-01-14 08:57:49  Вован
130 Камуфляж для охоты.  StringWalker  [ 1 2 ]
34 383 2020-01-12 21:53:53  Pavel
6 91 2020-01-12 20:13:44  Тот Самый Олег
132 АТА шоу 2020  Александр Курашёв
15 147 2020-01-12 08:46:48  Черкасов
12 112 2020-01-11 08:45:15  iBolit66
134 Broadhead tuning  Тот Самый Олег
14 182 2020-01-10 00:20:07  Bows
135 Перчатки Sitka Ascent Glove - мой опыт  Александр Курашёв
3 35 2020-01-07 00:47:27  Pavel
6 104 2020-01-05 20:26:32  Владимир
3 81 2019-12-31 17:13:50  Юджин
138 Про АТА арбалета  Владимир
13 95 2019-12-29 10:28:55  Владимир
11 134 2019-12-28 16:13:27  Александр Курашёв
13 183 2019-12-28 06:11:28  Василий
2 73 2019-12-27 23:26:46  Bows
1 32 2019-12-27 21:56:10  Александр Курашёв
1 67 2019-12-26 00:14:32  Тот Самый Олег
144 Valkyrie наконечник валькирия  Тот Самый Олег
6 108 2019-12-25 17:04:56  Тот Самый Олег
15 248 2019-12-25 03:29:13  Тот Самый Олег
146 RMSG CUTTHROAT BROADHEAD  Тот Самый Олег
9 127 2019-12-24 23:00:04  Тот Самый Олег
147 Rage Hypodermic  Тот Самый Олег
1 39 2019-12-24 19:01:38  Foxshooter
148 German Kinetics  Тот Самый Олег
3 112 2019-12-24 16:33:33  Юджин
149 Модный вискербискет  Тот Самый Олег
2 50 2019-12-23 05:16:53  Тот Самый Олег
2 34 2019-12-23 01:18:48  Александр Курашёв

Вы здесь » Боухантеры.ру » Снаряжение боухантера